createdAt,value
2019-04-05T00:00:10.646Z,30.30
2019-04-05T00:02:42.643Z,35.23
2019-04-05T00:05:14.520Z,30.53
2019-04-05T00:07:45.324Z,29.97
2019-04-05T00:10:17.191Z,33.07
2019-04-05T00:12:47.914Z,31.97
2019-04-05T00:15:20.995Z,36.37
2019-04-05T00:17:53.123Z,34.30
2019-04-05T00:20:23.778Z,31.97
2019-04-05T00:22:57.198Z,33.43
2019-04-05T00:25:27.703Z,35.47
2019-04-05T00:27:58.683Z,37.57
2019-04-05T00:30:34.669Z,37.77
2019-04-05T00:33:06.943Z,36.50
2019-04-05T00:35:41.016Z,35.50
2019-04-05T00:38:30.625Z,36.37
2019-04-05T00:41:13.982Z,34.40
2019-04-05T00:43:55.838Z,38.00
2019-04-05T00:46:26.077Z,35.23
2019-04-05T00:52:14.388Z,37.23
2019-04-05T00:54:56.355Z,33.37
2019-04-05T00:57:38.307Z,41.50
2019-04-05T01:00:21.356Z,33.33
2019-04-05T01:03:07.415Z,35.97
2019-04-05T01:05:49.059Z,35.57
2019-04-05T01:08:33.672Z,35.90
2019-04-05T01:11:03.925Z,31.43
2019-04-05T01:13:53.799Z,29.20
2019-04-05T01:16:39.537Z,32.93
2019-04-05T01:19:26.824Z,32.03
2019-04-05T01:22:12.050Z,33.00
2019-04-05T01:24:42.951Z,32.90
2019-04-05T01:27:17.252Z,35.40
2019-04-05T01:29:49.147Z,32.20
2019-04-05T01:32:19.754Z,34.63
2019-04-05T01:34:50.391Z,38.23
2019-04-05T01:37:22.634Z,39.40
2019-04-05T01:39:53.437Z,40.67
2019-04-05T01:42:25.620Z,36.60
2019-04-05T01:44:57.345Z,39.30
2019-04-05T01:47:27.919Z,36.07
2019-04-05T01:49:58.603Z,35.53
2019-04-05T01:52:29.170Z,38.27
2019-04-05T01:54:59.798Z,37.63
2019-04-05T01:57:30.423Z,36.03
2019-04-05T02:00:02.787Z,39.37
2019-04-05T02:02:34.104Z,36.93
2019-04-05T02:05:07.825Z,35.60
2019-04-05T02:07:40.702Z,41.23
2019-04-05T02:10:12.055Z,38.07
2019-04-05T02:12:42.520Z,36.97
2019-04-05T02:15:27.438Z,39.30
2019-04-05T02:18:00.212Z,39.27
2019-04-05T02:20:30.806Z,38.57
2019-04-05T02:23:02.771Z,40.97
2019-04-05T02:25:33.433Z,40.60
2019-04-05T02:28:03.980Z,42.57
2019-04-05T02:30:34.624Z,40.03
2019-04-05T02:33:06.247Z,35.80
2019-04-05T02:35:39.065Z,41.50
2019-04-05T02:38:09.045Z,39.07
2019-04-05T02:40:41.874Z,40.70
2019-04-05T02:43:15.383Z,40.03
2019-04-05T02:45:47.521Z,42.73
2019-04-05T02:48:20.669Z,38.40
2019-04-05T02:50:55.394Z,42.57
2019-04-05T02:53:27.041Z,45.87
2019-04-05T02:55:58.280Z,40.93
2019-04-05T02:58:29.678Z,43.23
2019-04-05T03:01:00.397Z,44.50
2019-04-05T03:03:30.923Z,39.50
2019-04-05T03:06:03.518Z,42.27
2019-04-05T03:09:14.682Z,43.47
2019-04-05T03:11:29.614Z,41.47
2019-04-05T03:14:13.073Z,44.63
2019-04-05T03:16:46.733Z,37.77
2019-04-05T03:19:21.745Z,36.97
2019-04-05T03:21:56.185Z,40.03
2019-04-05T03:24:32.325Z,35.83
2019-04-05T03:27:23.590Z,39.30
2019-04-05T03:30:05.941Z,36.60
2019-04-05T03:32:39.035Z,39.30
2019-04-05T03:35:10.011Z,40.37
2019-04-05T03:37:40.630Z,40.87
2019-04-05T03:40:12.032Z,44.13
2019-04-05T03:42:43.317Z,42.60
2019-04-05T03:45:14.236Z,38.77
2019-04-05T03:47:46.420Z,38.40
2019-04-05T03:50:17.059Z,38.73
2019-04-05T03:52:47.506Z,39.67
2019-04-05T03:55:21.528Z,42.37
2019-04-05T03:57:51.088Z,41.83
2019-04-05T04:00:21.664Z,41.43
2019-04-05T04:02:52.456Z,43.73
2019-04-05T04:05:22.787Z,44.73
2019-04-05T04:07:53.075Z,43.27
2019-04-05T04:10:24.360Z,49.53
2019-04-05T04:12:54.686Z,45.97
2019-04-05T04:15:26.394Z,46.07
2019-04-05T04:17:57.524Z,47.53
2019-04-05T04:20:38.933Z,49.90
2019-04-05T04:23:10.007Z,48.27
2019-04-05T04:25:40.721Z,52.87
2019-04-05T04:28:11.800Z,47.60
2019-04-05T04:30:42.159Z,48.13
2019-04-05T04:33:12.971Z,44.17
2019-04-05T04:35:44.434Z,49.73
2019-04-05T04:38:14.832Z,50.17
2019-04-05T04:40:45.869Z,48.00
2019-04-05T04:43:16.560Z,50.60
2019-04-05T04:45:47.857Z,57.23
2019-04-05T04:48:18.631Z,55.70
2019-04-05T04:50:49.406Z,53.70
2019-04-05T04:53:19.951Z,48.70
2019-04-05T04:55:51.687Z,52.17
2019-04-05T04:58:27.627Z,53.13
2019-04-05T05:01:00.071Z,54.43
2019-04-05T05:03:30.855Z,46.80
2019-04-05T05:06:01.371Z,50.60
2019-04-05T05:08:31.853Z,52.07
2019-04-05T05:11:13.935Z,50.27
2019-04-05T05:13:36.921Z,45.90
2019-04-05T05:16:07.296Z,46.50
2019-04-05T05:18:37.965Z,45.70
2019-04-05T05:21:10.337Z,47.50
2019-04-05T05:23:40.885Z,46.90
2019-04-05T05:26:13.461Z,45.90
2019-04-05T05:28:44.299Z,45.07
2019-04-05T05:31:14.711Z,45.67
2019-04-05T05:33:45.449Z,48.00
2019-04-05T05:36:16.024Z,47.83
2019-04-05T05:38:46.597Z,49.80
2019-04-05T05:41:16.896Z,45.30
2019-04-05T05:43:47.390Z,45.93
2019-04-05T05:46:18.037Z,47.47
2019-04-05T05:48:48.601Z,44.47
2019-04-05T05:51:19.225Z,45.87
2019-04-05T05:53:51.301Z,43.33
2019-04-05T05:56:22.773Z,45.40
2019-04-05T05:58:55.310Z,42.67
2019-04-05T06:01:25.125Z,40.00
2019-04-05T06:03:55.816Z,41.13
2019-04-05T06:06:26.252Z,39.27
2019-04-05T06:08:56.595Z,37.70
2019-04-05T06:11:27.173Z,36.60
2019-04-05T06:13:57.651Z,35.43
2019-04-05T06:16:28.023Z,38.13
2019-04-05T06:18:58.431Z,37.27
2019-04-05T06:21:28.768Z,38.43
2019-04-05T06:24:00.678Z,36.57
2019-04-05T06:26:30.932Z,43.02
2019-04-05T06:29:01.214Z,38.13
2019-04-05T06:31:31.602Z,43.10
2019-04-05T06:34:01.930Z,39.43
2019-04-05T06:36:34.196Z,39.77
2019-04-05T06:39:06.538Z,32.53
2019-04-05T06:41:36.816Z,34.83
2019-04-05T06:44:07.735Z,36.50
2019-04-05T06:46:38.087Z,31.90
2019-04-05T06:49:08.347Z,36.80
2019-04-05T06:51:38.624Z,34.83
2019-04-05T06:54:08.856Z,35.80
2019-04-05T06:56:39.284Z,33.10
2019-04-05T06:59:09.662Z,31.47
2019-04-05T07:01:40.066Z,33.97
2019-04-05T07:04:10.363Z,32.20
2019-04-05T07:06:40.654Z,30.33
2019-04-05T07:09:10.935Z,30.60
2019-04-05T07:11:41.712Z,31.00
2019-04-05T07:14:11.958Z,30.23
2019-04-05T07:16:42.275Z,30.50
2019-04-05T07:19:12.542Z,28.67
2019-04-05T07:21:42.854Z,28.17
2019-04-05T07:24:13.602Z,30.80
2019-04-05T07:26:43.894Z,28.93
2019-04-05T07:29:14.203Z,33.30
2019-04-05T07:31:44.447Z,28.60
2019-04-05T07:34:14.736Z,30.50
2019-04-05T07:36:45.106Z,29.10
2019-04-05T07:39:15.579Z,34.57
2019-04-05T07:41:46.289Z,32.83
2019-04-05T07:44:16.623Z,35.00
2019-04-05T07:46:47.388Z,37.53
2019-04-05T07:49:17.819Z,35.77
2019-04-05T07:51:48.231Z,36.00
2019-04-05T07:54:18.488Z,35.90
2019-04-05T07:56:48.750Z,35.57
2019-04-05T07:59:20.932Z,28.43
2019-04-05T08:01:51.030Z,28.40
2019-04-05T08:04:21.285Z,29.50
2019-04-05T08:06:51.614Z,28.73
2019-04-05T08:09:23.820Z,25.97
2019-04-05T08:11:54.784Z,26.37
2019-04-05T08:14:26.625Z,26.10
2019-04-05T08:16:56.903Z,25.13
2019-04-05T08:19:27.573Z,27.17
2019-04-05T08:21:57.903Z,24.87
2019-04-05T08:24:28.477Z,26.23
2019-04-05T08:26:59.884Z,26.57
2019-04-05T08:29:30.155Z,27.83
2019-04-05T08:32:13.995Z,28.67
2019-04-05T08:34:34.719Z,25.43
2019-04-05T08:37:05.016Z,25.83
2019-04-05T08:39:35.325Z,20.80
2019-04-05T08:42:05.703Z,19.07
2019-04-05T08:44:35.984Z,20.23
2019-04-05T08:47:06.310Z,19.47
2019-04-05T08:49:36.832Z,19.07
2019-04-05T08:52:07.148Z,17.23
2019-04-05T08:54:37.613Z,15.03
2019-04-05T08:57:07.948Z,16.37
2019-04-05T08:59:38.174Z,15.53
2019-04-05T09:02:08.438Z,15.57
2019-04-05T09:04:38.726Z,16.27
2019-04-05T09:07:10.038Z,13.97
2019-04-05T09:09:40.371Z,15.30
2019-04-05T09:12:10.623Z,16.80
2019-04-05T09:14:40.938Z,17.70
2019-04-05T09:17:11.227Z,19.50
2019-04-05T09:19:42.098Z,17.20
2019-04-05T09:22:12.354Z,17.90
2019-04-05T09:24:43.923Z,16.73
2019-04-05T09:27:14.229Z,17.50
2019-04-05T09:29:44.613Z,19.23
2019-04-05T09:32:15.303Z,16.63
2019-04-05T09:34:45.615Z,18.10
2019-04-05T09:37:15.874Z,22.77
2019-04-05T09:39:46.239Z,17.93
2019-04-05T09:42:16.547Z,19.87
2019-04-05T09:44:46.931Z,16.90
2019-04-05T09:47:17.432Z,19.20
2019-04-05T09:49:47.858Z,21.00
2019-04-05T09:52:18.138Z,19.17
2019-04-05T09:54:48.450Z,20.93
2019-04-05T09:57:18.710Z,19.20
2019-04-05T09:59:49.072Z,21.93
2019-04-05T10:02:19.388Z,21.87
2019-04-05T10:04:49.645Z,19.67
2019-04-05T10:07:20.019Z,24.93
2019-04-05T10:09:50.581Z,21.83
2019-04-05T10:12:22.186Z,22.50
2019-04-05T10:14:52.482Z,21.17
2019-04-05T10:17:22.956Z,24.17
2019-04-05T10:19:53.224Z,21.97
2019-04-05T10:22:23.660Z,23.03
2019-04-05T10:24:53.968Z,20.27
2019-04-05T10:27:24.215Z,20.67
2019-04-05T10:29:54.529Z,19.63
2019-04-05T10:32:24.982Z,19.73
2019-04-05T10:34:55.196Z,18.60
2019-04-05T10:37:25.459Z,18.90
2019-04-05T10:39:55.715Z,18.63
2019-04-05T10:42:31.101Z,17.37
2019-04-05T10:45:01.679Z,17.40
2019-04-05T10:47:32.071Z,17.67
2019-04-05T10:50:03.698Z,22.67
2019-04-05T10:52:34.121Z,16.00
2019-04-05T10:55:04.909Z,16.57
2019-04-05T10:57:35.165Z,15.80
2019-04-05T11:00:08.716Z,16.83
2019-04-05T11:02:39.430Z,15.57
2019-04-05T11:05:11.671Z,18.70
2019-04-05T11:07:42.148Z,19.00
2019-04-05T11:10:13.863Z,18.20
2019-04-05T11:12:44.167Z,17.07
2019-04-05T11:15:15.191Z,15.43
2019-04-05T11:17:45.551Z,16.67
2019-04-05T11:20:21.539Z,14.53
2019-04-05T11:22:50.951Z,18.90
2019-04-05T11:25:21.312Z,16.97
2019-04-05T11:27:51.572Z,16.27
2019-04-05T11:30:45.451Z,16.53
2019-04-05T11:33:15.804Z,14.90
2019-04-05T11:35:46.269Z,15.97
2019-04-05T11:38:17.152Z,15.90
2019-04-05T11:40:48.326Z,15.00
2019-04-05T11:43:19.337Z,14.73
2019-04-05T11:45:50.824Z,16.90
2019-04-05T11:48:22.838Z,14.97
2019-04-05T11:50:53.135Z,16.00
2019-04-05T11:53:23.478Z,17.90
2019-04-05T11:55:53.835Z,14.70
2019-04-05T11:58:24.210Z,16.10
2019-04-05T12:00:57.619Z,18.40
2019-04-05T12:03:28.621Z,15.50
2019-04-05T12:05:58.939Z,15.00
2019-04-05T12:08:29.167Z,15.87
2019-04-05T12:10:59.554Z,15.93
2019-04-05T12:13:29.779Z,16.67
2019-04-05T12:16:00.141Z,14.80
2019-04-05T12:18:30.432Z,14.80
2019-04-05T12:21:02.803Z,16.63
2019-04-05T12:23:33.534Z,14.27
2019-04-05T12:26:05.515Z,14.10
2019-04-05T12:28:35.775Z,15.23
2019-04-05T12:31:06.080Z,15.27
2019-04-05T12:33:36.395Z,15.63
2019-04-05T12:36:07.316Z,16.80
2019-04-05T12:38:37.564Z,14.47
2019-04-05T12:41:10.807Z,15.53
2019-04-05T12:43:43.978Z,13.83
2019-04-05T12:46:14.979Z,17.17
2019-04-05T12:48:46.335Z,15.23
2019-04-05T12:51:16.476Z,14.83
2019-04-05T12:53:46.836Z,16.73
2019-04-05T12:56:17.333Z,16.53
2019-04-05T12:58:47.891Z,14.00
2019-04-05T13:01:18.337Z,13.50
2019-04-05T13:03:51.081Z,16.73
2019-04-05T13:06:21.777Z,16.40
2019-04-05T13:08:54.492Z,15.37
2019-04-05T13:11:26.667Z,14.20
2019-04-05T13:13:58.526Z,16.07
2019-04-05T13:16:28.938Z,14.67
2019-04-05T13:19:00.878Z,14.67
2019-04-05T13:21:33.005Z,14.00
2019-04-05T13:24:04.402Z,14.47
2019-04-05T13:26:36.888Z,15.63
2019-04-05T13:29:07.425Z,13.67
2019-04-05T13:31:37.786Z,16.00
2019-04-05T13:34:08.193Z,14.57
2019-04-05T13:36:38.633Z,15.23
2019-04-05T13:39:10.338Z,16.20
2019-04-05T13:41:40.884Z,15.13
2019-04-05T13:44:11.387Z,17.67
2019-04-05T13:46:42.863Z,17.17
2019-04-05T13:49:13.281Z,15.53
2019-04-05T13:51:43.634Z,15.63
2019-04-05T13:54:13.964Z,17.13
2019-04-05T13:56:44.350Z,19.43
2019-04-05T13:59:14.702Z,20.03
2019-04-05T14:01:44.984Z,19.10
2019-04-05T14:04:17.032Z,17.33
2019-04-05T14:06:47.682Z,20.03
2019-04-05T14:09:18.146Z,21.17
2019-04-05T14:11:48.698Z,20.50
2019-04-05T14:14:19.233Z,21.13
2019-04-05T14:16:49.489Z,19.37
2019-04-05T14:19:19.790Z,17.27
2019-04-05T14:21:52.777Z,18.00
2019-04-05T14:24:23.502Z,18.97
2019-04-05T14:26:54.271Z,18.73
2019-04-05T14:29:24.665Z,17.17
2019-04-05T14:31:55.188Z,17.97
2019-04-05T14:34:25.563Z,16.03
2019-04-05T14:36:55.835Z,15.77
2019-04-05T14:39:26.291Z,14.47
2019-04-05T14:42:08.840Z,19.50
2019-04-05T14:44:28.733Z,14.27
2019-04-05T14:46:58.978Z,15.03
2019-04-05T14:49:30.757Z,14.27
2019-04-05T14:52:01.942Z,15.67
2019-04-05T14:54:32.407Z,17.17
2019-04-05T14:57:05.653Z,15.40
2019-04-05T14:59:34.792Z,16.10
2019-04-05T15:02:05.214Z,15.20
2019-04-05T15:04:35.633Z,15.03
2019-04-05T15:07:05.976Z,15.67
2019-04-05T15:09:36.397Z,16.93
2019-04-05T15:12:07.226Z,19.07
2019-04-05T15:14:37.638Z,18.13
2019-04-05T15:17:09.723Z,17.70
2019-04-05T15:19:40.080Z,15.63
2019-04-05T15:22:11.638Z,17.13
2019-04-05T15:24:42.224Z,19.27
2019-04-05T15:27:12.930Z,17.07
2019-04-05T15:29:43.182Z,19.20
2019-04-05T15:32:14.590Z,18.07
2019-04-05T15:34:44.903Z,19.00
2019-04-05T15:37:16.297Z,16.40
2019-04-05T15:39:46.819Z,17.13
2019-04-05T15:42:17.209Z,17.37
2019-04-05T15:44:48.007Z,21.90
2019-04-05T15:47:18.584Z,21.27
2019-04-05T15:49:51.551Z,17.83
2019-04-05T15:52:21.026Z,21.00
2019-04-05T15:54:51.278Z,18.63
2019-04-05T15:57:21.680Z,19.33
2019-04-05T15:59:52.107Z,21.00
2019-04-05T16:02:22.446Z,17.90
2019-04-05T16:04:53.266Z,20.27
2019-04-05T16:07:23.663Z,22.60
2019-04-05T16:09:54.329Z,20.37
2019-04-05T16:12:24.858Z,18.47
2019-04-05T16:14:55.505Z,20.37
2019-04-05T16:17:25.770Z,20.87
2019-04-05T16:19:56.140Z,22.13
2019-04-05T16:22:31.589Z,18.07
2019-04-05T16:24:58.562Z,24.43
2019-04-05T16:27:29.063Z,20.67
2019-04-05T16:29:59.664Z,20.70
2019-04-05T16:32:30.027Z,21.80
2019-04-05T16:35:00.972Z,21.10
2019-04-05T16:37:32.926Z,20.30
2019-04-05T16:40:03.273Z,20.70
2019-04-05T16:42:33.580Z,23.07
2019-04-05T16:45:04.754Z,22.00
2019-04-05T16:47:35.075Z,21.07
2019-04-05T16:50:06.156Z,26.03
2019-04-05T16:52:44.753Z,24.67
2019-04-05T16:55:08.678Z,21.87
2019-04-05T16:57:39.089Z,21.00
2019-04-05T17:00:11.988Z,24.07
2019-04-05T17:02:42.639Z,24.63
2019-04-05T17:05:13.420Z,24.47
2019-04-05T17:07:43.859Z,26.30
2019-04-05T17:10:14.285Z,26.27
2019-04-05T17:12:44.823Z,24.93
2019-04-05T17:15:15.428Z,24.47
2019-04-05T17:17:46.236Z,25.67
2019-04-05T17:20:16.834Z,28.20
2019-04-05T17:22:57.543Z,26.80
2019-04-05T17:25:19.260Z,27.43
2019-04-05T17:27:49.493Z,25.23
2019-04-05T17:30:19.821Z,29.87
2019-04-05T17:32:50.156Z,27.73
2019-04-05T17:35:20.750Z,26.40
2019-04-05T17:37:51.212Z,27.67
2019-04-05T17:40:21.609Z,25.83
2019-04-05T17:42:51.891Z,26.90
2019-04-05T17:45:22.211Z,26.33
2019-04-05T17:47:52.606Z,27.27
2019-04-05T17:50:31.880Z,25.10
2019-04-05T17:53:12.546Z,31.87
2019-04-05T17:55:38.024Z,28.73
2019-04-05T17:58:08.644Z,30.60
2019-04-05T18:00:40.713Z,34.00
2019-04-05T18:03:11.111Z,28.23
2019-04-05T18:05:42.068Z,33.30
2019-04-05T18:08:12.585Z,28.93
2019-04-05T18:10:45.244Z,33.23
2019-04-05T18:13:16.390Z,28.23
2019-04-05T18:15:52.836Z,28.90
2019-04-05T18:18:20.008Z,31.83
2019-04-05T18:20:52.289Z,28.03
2019-04-05T18:23:25.252Z,31.03
2019-04-05T18:25:55.070Z,36.80
2019-04-05T18:28:25.634Z,35.10
2019-04-05T18:30:56.060Z,32.50
2019-04-05T18:33:26.458Z,38.97
2019-04-05T18:35:56.771Z,35.07
2019-04-05T18:38:27.191Z,37.33
2019-04-05T18:40:57.550Z,34.97
2019-04-05T18:43:27.911Z,37.13
2019-04-05T18:45:58.191Z,36.03
2019-04-05T18:48:28.598Z,37.10
2019-04-05T18:50:58.881Z,37.03
2019-04-05T18:53:37.567Z,37.20
2019-04-05T18:56:01.187Z,38.10
2019-04-05T18:58:31.509Z,40.53
2019-04-05T19:01:01.911Z,38.80
2019-04-05T19:03:33.600Z,37.53
2019-04-05T19:06:03.935Z,38.13
2019-04-05T19:08:39.851Z,38.73
2019-04-05T19:11:06.548Z,39.00
2019-04-05T19:13:37.017Z,35.10
2019-04-05T19:16:07.374Z,36.93
2019-04-05T19:18:37.821Z,36.93
2019-04-05T19:21:09.939Z,31.03
2019-04-05T19:23:50.368Z,44.17
2019-04-05T19:26:12.638Z,39.70
2019-04-05T19:28:42.942Z,37.70
2019-04-05T19:48:58.858Z,37.97
2019-04-05T19:51:29.269Z,39.53
2019-04-05T19:54:01.212Z,37.50
2019-04-05T19:56:32.701Z,35.27
2019-04-05T19:59:05.243Z,40.57
2019-04-05T20:01:35.562Z,34.20
2019-04-05T20:04:05.939Z,38.33
2019-04-05T20:06:36.369Z,35.83
2019-04-05T20:09:08.141Z,36.90
2019-04-05T20:11:38.986Z,36.77
2019-04-05T20:14:09.474Z,37.83
2019-04-05T20:16:40.389Z,35.93
2019-04-05T20:19:12.081Z,40.00
2019-04-05T20:21:42.926Z,38.73
2019-04-05T20:24:14.314Z,35.30
2019-04-05T20:26:45.110Z,39.87
2019-04-05T20:29:15.531Z,37.97
2019-04-05T20:31:45.908Z,34.00
2019-04-05T20:34:16.452Z,35.57
2019-04-05T20:36:47.998Z,40.40
2019-04-05T20:39:18.682Z,36.33
2019-04-05T20:41:50.710Z,36.20
2019-04-05T20:44:21.340Z,37.60
2019-04-05T20:46:51.752Z,37.90
2019-04-05T20:49:22.465Z,40.60
2019-04-05T20:51:53.301Z,35.80
2019-04-05T20:54:24.896Z,38.47
2019-04-05T20:56:58.270Z,37.40
2019-04-05T20:59:28.684Z,37.07
2019-04-05T21:01:59.115Z,37.23
2019-04-05T21:04:29.384Z,38.20
2019-04-05T21:06:59.772Z,37.03
2019-04-05T21:09:30.269Z,39.73
2019-04-05T21:12:00.950Z,42.57
2019-04-05T21:14:31.277Z,38.57
2019-04-05T21:17:01.672Z,37.27
2019-04-05T21:19:33.831Z,37.30
2019-04-05T21:22:04.328Z,35.47
2019-04-05T21:24:36.409Z,39.83
2019-04-05T21:27:06.678Z,38.07
2019-04-05T21:29:37.059Z,40.10
2019-04-05T21:32:07.357Z,37.93
2019-04-05T21:34:37.806Z,40.73
2019-04-05T21:37:08.132Z,38.03
2019-04-05T21:39:38.417Z,40.13
2019-04-05T21:42:08.722Z,39.53
2019-04-05T21:44:39.972Z,39.13
2019-04-05T21:47:10.686Z,38.07
2019-04-05T21:49:41.116Z,38.70
2019-04-05T21:52:11.422Z,41.90
2019-04-05T21:54:47.408Z,37.60
2019-04-05T21:57:13.715Z,41.13
2019-04-05T21:59:44.076Z,42.07
2019-04-05T22:02:14.394Z,42.97
2019-04-05T22:04:44.721Z,47.60
2019-04-05T22:07:15.099Z,40.27
2019-04-05T22:09:45.370Z,42.37
2019-04-05T22:12:15.845Z,43.67
2019-04-05T22:14:46.210Z,39.77
2019-04-05T22:17:16.448Z,43.37
2019-04-05T22:19:46.713Z,43.13
2019-04-05T22:22:16.983Z,38.63
2019-04-05T22:24:58.564Z,44.87
2019-04-05T22:27:19.349Z,41.97
2019-04-05T22:29:49.700Z,42.57
2019-04-05T22:32:20.221Z,42.77
2019-04-05T22:34:50.674Z,41.07
2019-04-05T22:37:21.206Z,38.43
2019-04-05T22:39:51.503Z,42.07
2019-04-05T22:42:22.820Z,43.80
2019-04-05T22:44:53.132Z,41.57
2019-04-05T22:47:23.403Z,42.10
2019-04-05T22:49:53.627Z,41.77
2019-04-05T22:52:24.007Z,41.40
2019-04-05T22:54:54.263Z,41.20
2019-04-05T22:57:27.042Z,40.70
2019-04-05T22:59:57.681Z,42.33
2019-04-05T23:02:27.942Z,45.67
2019-04-05T23:05:00.823Z,41.97
2019-04-05T23:07:30.501Z,42.53
2019-04-05T23:10:00.799Z,44.47
2019-04-05T23:12:31.166Z,40.43
2019-04-05T23:15:01.763Z,41.43
2019-04-05T23:17:32.281Z,47.23
2019-04-05T23:20:02.580Z,46.80
2019-04-05T23:22:32.946Z,43.00
2019-04-05T23:25:03.235Z,45.33
2019-04-05T23:27:37.136Z,44.73
2019-04-05T23:30:08.975Z,46.20
2019-04-05T23:32:39.379Z,43.83
2019-04-05T23:35:09.690Z,41.10
2019-04-05T23:37:39.970Z,42.23
2019-04-05T23:40:12.327Z,38.40
2019-04-05T23:42:42.674Z,40.90
2019-04-05T23:45:13.182Z,40.87
2019-04-05T23:47:43.467Z,39.23
2019-04-05T23:50:13.818Z,37.10
2019-04-05T23:52:44.137Z,42.90
2019-04-05T23:55:14.441Z,42.07
2019-04-05T23:57:44.816Z,44.60
